Terminal Aerodrome Forecast
Issued by NWS

Home | Current Version | Previous Version | Text Only | Print | Product List | Glossary On
Versions: 1 2 3 4 5 6 7 8 9 10 11 12
223
FTUS45 KABQ 220521
TAFFMN
TAF
KFMN 220521Z 2206/2306 28006KT P6SM SCT250
     FM220800 08005KT P6SM BKN250
     FM221600 VRB04KT P6SM FEW250
     FM221900 27013G21KT P6SM SKC
     FM230100 27007KT P6SM SKC=

USA.gov is the U.S. government's official web portal to all federal, state and local government web resources and services.